createdAt,value
2023-11-13T00:00:36.780Z,6.82
2023-11-13T00:03:38.795Z,6.95
2023-11-13T00:06:40.940Z,6.90
2023-11-13T00:09:42.636Z,6.83
2023-11-13T00:12:44.805Z,6.93
2023-11-13T00:15:46.856Z,6.81
2023-11-13T00:18:48.996Z,6.79
2023-11-13T00:21:50.732Z,6.76
2023-11-13T00:24:52.657Z,6.73
2023-11-13T00:27:54.765Z,6.69
2023-11-13T00:30:56.809Z,6.81
2023-11-13T00:33:59.629Z,6.80
2023-11-13T00:37:01.361Z,6.78
2023-11-13T00:40:03.511Z,6.88
2023-11-13T00:43:05.501Z,6.89
2023-11-13T00:46:08.124Z,6.90
2023-11-13T00:49:10.119Z,6.89
2023-11-13T00:52:12.074Z,6.81
2023-11-13T00:55:15.050Z,6.79
2023-11-13T00:58:17.026Z,6.72
2023-11-13T01:01:19.004Z,6.72
2023-11-13T01:04:21.108Z,6.74
2023-11-13T01:07:22.764Z,6.77
2023-11-13T01:10:24.513Z,6.80
2023-11-13T01:13:27.953Z,6.70
2023-11-13T01:16:30.721Z,6.66
2023-11-13T01:19:32.596Z,6.63
2023-11-13T01:22:34.277Z,6.59
2023-11-13T01:25:36.240Z,6.63
2023-11-13T01:28:38.095Z,6.64
2023-11-13T01:31:39.971Z,6.64
2023-11-13T01:34:44.681Z,6.65
2023-11-13T01:37:47.473Z,6.68
2023-11-13T01:40:49.318Z,6.52
2023-11-13T01:43:51.185Z,6.52
2023-11-13T01:46:53.129Z,6.50
2023-11-13T01:49:54.900Z,6.35
2023-11-13T01:52:56.839Z,6.44
2023-11-13T01:56:01.509Z,6.51
2023-11-13T01:59:03.683Z,6.60
2023-11-13T02:02:06.081Z,6.54
2023-11-13T02:05:08.728Z,6.58
2023-11-13T02:08:10.647Z,6.62
2023-11-13T02:11:12.815Z,6.59
2023-11-13T02:14:14.840Z,6.51
2023-11-13T02:17:17.851Z,6.52
2023-11-13T02:20:22.736Z,6.46
2023-11-13T02:23:24.633Z,6.42
2023-11-13T02:26:26.337Z,6.41
2023-11-13T02:29:28.191Z,6.43
2023-11-13T02:32:29.900Z,6.37
2023-11-13T02:35:31.853Z,6.40
2023-11-13T02:38:33.989Z,6.37
2023-11-13T02:41:35.969Z,6.35
2023-11-13T02:44:37.810Z,6.34
2023-11-13T02:47:39.557Z,6.31
2023-11-13T02:50:41.486Z,6.38
2023-11-13T02:53:43.454Z,6.38
2023-11-13T02:56:45.111Z,6.36
2023-11-13T02:59:47.071Z,6.29
2023-11-13T03:02:49.152Z,6.28
2023-11-13T03:05:50.964Z,6.24
2023-11-13T03:08:52.927Z,6.25
2023-11-13T03:11:54.917Z,6.16
2023-11-13T03:14:56.532Z,6.26
2023-11-13T03:17:58.336Z,6.23
2023-11-13T03:20:59.948Z,6.22
2023-11-13T03:24:01.648Z,6.17
2023-11-13T03:27:03.578Z,6.11
2023-11-13T03:30:06.370Z,6.12
2023-11-13T03:33:08.423Z,6.11
2023-11-13T03:36:10.162Z,6.12
2023-11-13T03:39:12.930Z,6.21
2023-11-13T03:42:14.580Z,6.31
2023-11-13T03:45:16.233Z,6.32
2023-11-13T03:48:18.104Z,6.31
2023-11-13T03:51:20.562Z,6.31
2023-11-13T03:54:22.311Z,6.30
2023-11-13T03:57:23.902Z,6.30
2023-11-13T04:00:25.837Z,6.31
2023-11-13T04:03:27.859Z,6.30
2023-11-13T04:06:30.033Z,6.29
2023-11-13T04:09:31.918Z,6.33
2023-11-13T04:12:33.574Z,6.31
2023-11-13T04:15:35.214Z,6.31
2023-11-13T04:18:36.893Z,6.32
2023-11-13T04:21:38.861Z,6.30
2023-11-13T04:24:40.566Z,6.26
2023-11-13T04:27:42.537Z,6.30
2023-11-13T04:30:44.143Z,6.33
2023-11-13T04:33:47.461Z,6.11
2023-11-13T04:36:49.352Z,6.28
2023-11-13T04:39:51.345Z,6.19
2023-11-13T04:42:53.694Z,6.21
2023-11-13T04:45:55.674Z,6.31
2023-11-13T04:48:57.728Z,6.42
2023-11-13T04:52:00.739Z,6.42
2023-11-13T04:55:02.599Z,6.44
2023-11-13T04:58:04.613Z,6.48
2023-11-13T05:01:09.395Z,6.51
2023-11-13T05:04:13.951Z,6.56
2023-11-13T05:07:16.674Z,6.58
2023-11-13T05:10:18.637Z,6.47
2023-11-13T05:13:20.403Z,6.52
2023-11-13T05:16:26.801Z,6.51
2023-11-13T05:19:28.615Z,6.47
2023-11-13T05:22:30.633Z,6.41
2023-11-13T05:25:32.634Z,6.32
2023-11-13T05:28:35.023Z,6.27
2023-11-13T05:31:37.018Z,6.27
2023-11-13T05:34:40.086Z,6.36
2023-11-13T05:37:44.265Z,6.32
2023-11-13T05:40:46.408Z,6.44
2023-11-13T05:43:48.343Z,6.39
2023-11-13T05:46:50.235Z,6.35
2023-11-13T05:49:52.302Z,6.49
2023-11-13T05:52:54.532Z,6.48
2023-11-13T05:55:57.966Z,6.49
2023-11-13T05:59:00.209Z,6.42
2023-11-13T06:02:02.109Z,6.43
2023-11-13T06:05:06.649Z,6.52
2023-11-13T06:08:08.373Z,6.58
2023-11-13T06:11:10.393Z,6.56
2023-11-13T06:14:13.140Z,6.56
2023-11-13T06:17:14.892Z,6.79
2023-11-13T06:20:16.714Z,6.81
2023-11-13T06:23:18.336Z,6.95
2023-11-13T06:26:20.254Z,7.02
2023-11-13T06:29:22.215Z,7.11
2023-11-13T06:32:24.031Z,7.17
2023-11-13T06:35:26.034Z,7.21
2023-11-13T06:38:27.671Z,7.23
2023-11-13T06:41:29.373Z,7.33
2023-11-13T06:44:31.206Z,7.44
2023-11-13T06:47:34.166Z,7.46
2023-11-13T06:50:44.725Z,7.57
2023-11-13T06:53:49.569Z,7.51
2023-11-13T06:56:51.669Z,7.46
2023-11-13T06:59:53.623Z,7.48
2023-11-13T07:02:56.693Z,7.46
2023-11-13T07:05:58.803Z,7.44
2023-11-13T07:09:00.466Z,7.42
2023-11-13T07:12:02.144Z,7.39
2023-11-13T07:15:06.144Z,7.36
2023-11-13T07:18:08.563Z,7.31
2023-11-13T07:21:10.321Z,7.43
2023-11-13T07:24:13.735Z,7.38
2023-11-13T07:27:15.762Z,7.40
2023-11-13T07:30:31.268Z,7.29
2023-11-13T07:33:34.570Z,7.46
2023-11-13T07:36:36.450Z,7.62
2023-11-13T07:39:38.413Z,7.68
2023-11-13T07:42:42.204Z,7.39
2023-11-13T07:45:44.202Z,7.48
2023-11-13T07:48:46.998Z,7.48
2023-11-13T07:52:01.522Z,7.43
2023-11-13T07:55:03.727Z,7.32
2023-11-13T07:58:05.856Z,7.43
2023-11-13T08:01:08.587Z,7.67
2023-11-13T08:04:10.365Z,7.79
2023-11-13T08:07:17.567Z,7.77
2023-11-13T08:10:27.454Z,7.87
2023-11-13T08:13:29.306Z,7.99
2023-11-13T08:16:31.414Z,7.94
2023-11-13T08:19:34.529Z,7.91
2023-11-13T08:22:37.359Z,8.05
2023-11-13T08:25:39.305Z,8.04
2023-11-13T08:28:41.527Z,7.83
2023-11-13T08:31:49.339Z,7.93
2023-11-13T08:34:51.357Z,8.22
2023-11-13T08:37:53.412Z,8.29
2023-11-13T08:40:55.303Z,8.51
2023-11-13T08:43:57.184Z,8.48
2023-11-13T08:47:01.032Z,8.60
2023-11-13T08:50:03.149Z,8.59
2023-11-13T08:53:05.663Z,8.76
2023-11-13T08:56:11.542Z,8.65
2023-11-13T08:59:17.965Z,8.75
2023-11-13T09:02:19.875Z,8.63
2023-11-13T09:05:22.562Z,8.86
2023-11-13T09:08:24.608Z,8.96
2023-11-13T09:11:34.271Z,9.06
2023-11-13T09:14:44.361Z,8.90
2023-11-13T09:17:56.361Z,9.04
2023-11-13T09:20:58.405Z,9.14
2023-11-13T09:24:12.294Z,9.14
2023-11-13T09:27:14.565Z,8.86
2023-11-13T09:30:19.016Z,8.89
2023-11-13T09:33:22.878Z,8.87
2023-11-13T09:36:27.089Z,9.10
2023-11-13T09:39:29.121Z,9.40
2023-11-13T09:42:34.774Z,9.70
2023-11-13T09:45:36.755Z,9.58
2023-11-13T09:48:51.899Z,9.82
2023-11-13T09:51:53.878Z,10.12
2023-11-13T09:55:13.016Z,10.13
2023-11-13T09:58:16.351Z,10.07
2023-11-13T10:01:19.025Z,9.87
2023-11-13T10:04:33.395Z,9.98
2023-11-13T10:07:35.961Z,9.83
2023-11-13T10:10:38.093Z,10.38
2023-11-13T10:13:42.382Z,10.02
2023-11-13T10:17:01.182Z,10.04
2023-11-13T10:20:10.204Z,10.16
2023-11-13T10:23:16.998Z,9.95
2023-11-13T10:26:26.965Z,10.10
2023-11-13T10:29:30.145Z,10.39
2023-11-13T10:36:15.930Z,10.85
2023-11-13T10:39:36.305Z,10.54
2023-11-13T10:42:49.517Z,10.71
2023-11-13T10:45:54.363Z,10.97
2023-11-13T10:49:02.631Z,11.46
2023-11-13T10:52:10.035Z,11.79
2023-11-13T10:55:14.884Z,11.69
2023-11-13T10:58:17.836Z,11.33
2023-11-13T11:01:27.535Z,10.88
2023-11-13T11:04:32.888Z,10.48
2023-11-13T11:07:35.473Z,10.38
2023-11-13T11:10:38.369Z,10.06
2023-11-13T11:13:54.549Z,10.04
2023-11-13T11:21:05.725Z,10.02
2023-11-13T11:24:32.167Z,10.05
2023-11-13T11:28:03.561Z,9.98
2023-11-13T11:31:36.343Z,9.97
2023-11-13T11:34:41.338Z,10.21
2023-11-13T11:38:29.105Z,10.43
2023-11-13T11:41:40.830Z,10.56
2023-11-13T11:44:54.874Z,10.83
2023-11-13T11:48:14.916Z,10.97
2023-11-13T11:51:25.569Z,10.98
2023-11-13T11:54:42.023Z,10.96
2023-11-13T12:01:01.949Z,11.01
2023-11-13T12:04:11.282Z,10.94
2023-11-13T12:07:20.924Z,10.77
2023-11-13T12:10:23.324Z,10.67
2023-11-13T12:14:13.793Z,10.71
2023-11-13T12:17:20.520Z,10.48
2023-11-13T12:20:24.418Z,10.36
2023-11-13T12:23:27.785Z,10.28
2023-11-13T12:26:37.005Z,10.38
2023-11-13T12:29:39.169Z,10.62
2023-11-13T12:32:41.329Z,10.78
2023-11-13T12:35:46.175Z,10.88
2023-11-13T12:38:52.482Z,10.76
2023-11-13T12:42:04.906Z,10.77
2023-11-13T12:45:19.816Z,10.56
2023-11-13T12:48:23.684Z,10.57
2023-11-13T12:51:35.848Z,10.43
2023-11-13T12:54:40.375Z,10.37
2023-11-13T12:57:45.904Z,10.52
2023-11-13T13:00:48.989Z,10.55
2023-11-13T13:04:01.095Z,10.61
2023-11-13T13:07:07.268Z,10.53
2023-11-13T13:10:10.372Z,10.45
2023-11-13T13:13:12.264Z,10.47
2023-11-13T13:16:14.272Z,10.41
2023-11-13T13:19:16.388Z,10.29
2023-11-13T13:22:18.488Z,10.41
2023-11-13T13:25:26.491Z,10.36
2023-11-13T13:28:30.206Z,10.46
2023-11-13T13:31:34.947Z,10.45
2023-11-13T13:34:37.291Z,10.48
2023-11-13T13:37:40.527Z,10.42
2023-11-13T13:40:57.645Z,10.42
2023-11-13T13:44:17.614Z,10.33
2023-11-13T13:47:20.737Z,10.36
2023-11-13T13:50:36.415Z,10.38
2023-11-13T13:53:40.977Z,10.31
2023-11-13T13:56:42.814Z,10.25
2023-11-13T13:59:45.926Z,10.39
2023-11-13T14:03:02.506Z,10.44
2023-11-13T14:06:05.510Z,10.58
2023-11-13T14:09:10.086Z,10.69
2023-11-13T14:12:18.781Z,10.64
2023-11-13T14:15:29.160Z,10.67
2023-11-13T14:18:32.152Z,10.62
2023-11-13T14:21:34.064Z,11.62
2023-11-13T14:24:36.030Z,11.75
2023-11-13T14:27:38.155Z,12.19
2023-11-13T14:30:40.101Z,12.21
2023-11-13T14:33:42.796Z,11.60
2023-11-13T14:36:49.041Z,11.62
2023-11-13T14:39:54.657Z,11.52
2023-11-13T14:42:58.359Z,11.10
2023-11-13T14:46:00.239Z,10.75
2023-11-13T14:49:05.936Z,10.54
2023-11-13T14:52:08.208Z,10.28
2023-11-13T14:55:11.373Z,10.23
2023-11-13T14:58:15.571Z,10.16
2023-11-13T15:01:19.048Z,10.06
2023-11-13T15:04:24.110Z,10.00
2023-11-13T15:07:26.225Z,9.98
2023-11-13T15:10:43.921Z,9.96
2023-11-13T15:13:45.944Z,9.93
2023-11-13T15:17:03.713Z,9.89
2023-11-13T15:20:06.592Z,9.90
2023-11-13T15:23:20.229Z,9.82
2023-11-13T15:26:29.995Z,9.75
2023-11-13T15:29:31.953Z,9.72
2023-11-13T15:32:34.147Z,9.67
2023-11-13T15:35:36.116Z,9.71
2023-11-13T15:38:40.216Z,9.75
2023-11-13T15:41:42.200Z,9.72
2023-11-13T15:44:44.617Z,9.54
2023-11-13T15:47:46.727Z,9.62
2023-11-13T15:51:06.208Z,9.52
2023-11-13T15:54:08.088Z,9.58
2023-11-13T15:57:11.175Z,9.51
2023-11-13T16:00:14.031Z,9.41
2023-11-13T16:03:16.004Z,9.43
2023-11-13T16:06:18.831Z,9.33
2023-11-13T16:09:24.200Z,9.39
2023-11-13T16:12:47.063Z,9.39
2023-11-13T16:15:49.382Z,9.43
2023-11-13T16:18:51.456Z,9.35
2023-11-13T16:22:05.846Z,9.30
2023-11-13T16:28:27.163Z,9.42
2023-11-13T16:31:29.315Z,9.27
2023-11-13T16:34:46.228Z,9.14
2023-11-13T16:37:48.439Z,9.26
2023-11-13T16:40:50.376Z,9.24
2023-11-13T16:43:55.011Z,9.33
2023-11-13T16:46:56.910Z,9.66
2023-11-13T16:50:00.811Z,9.96
2023-11-13T16:53:03.353Z,9.74
2023-11-13T16:56:06.032Z,9.59
2023-11-13T16:59:09.021Z,9.51
2023-11-13T17:02:11.030Z,9.82
2023-11-13T17:05:12.998Z,10.59
2023-11-13T17:08:15.135Z,10.35
2023-11-13T17:11:16.874Z,10.07
2023-11-13T17:17:34.942Z,9.82
2023-11-13T17:20:37.547Z,9.70
2023-11-13T17:23:39.239Z,9.70
2023-11-13T17:26:40.838Z,9.81
2023-11-13T17:29:42.460Z,9.70
2023-11-13T17:32:44.172Z,9.62
2023-11-13T17:35:46.271Z,9.59
2023-11-13T17:38:48.564Z,9.53
2023-11-13T17:41:50.591Z,9.45
2023-11-13T17:44:52.657Z,9.46
2023-11-13T17:47:55.792Z,9.42
2023-11-13T17:51:00.149Z,9.47
2023-11-13T17:54:03.360Z,9.40
2023-11-13T17:57:05.978Z,9.45
2023-11-13T18:00:10.170Z,9.42
2023-11-13T18:03:14.855Z,9.24
2023-11-13T18:06:16.901Z,9.27
2023-11-13T18:09:19.057Z,9.34
2023-11-13T18:12:21.060Z,9.42
2023-11-13T18:15:22.755Z,9.43
2023-11-13T18:18:24.414Z,9.34
2023-11-13T18:21:46.475Z,9.38
2023-11-13T18:24:48.466Z,9.33
2023-11-13T18:27:50.436Z,9.39
2023-11-13T18:30:52.728Z,9.41
2023-11-13T18:33:54.570Z,9.39
2023-11-13T18:36:56.310Z,9.32
2023-11-13T18:39:57.996Z,9.39
2023-11-13T18:42:59.780Z,9.33
2023-11-13T18:46:01.530Z,9.46
2023-11-13T18:49:03.403Z,9.46
2023-11-13T18:52:06.033Z,9.34
2023-11-13T18:55:08.566Z,9.33
2023-11-13T18:58:10.433Z,9.38
2023-11-13T19:01:12.193Z,9.33
2023-11-13T19:04:14.354Z,9.33
2023-11-13T19:07:16.168Z,9.28
2023-11-13T19:10:18.212Z,9.22
2023-11-13T19:13:20.017Z,9.27
2023-11-13T19:16:21.746Z,9.20
2023-11-13T19:19:36.901Z,9.19
2023-11-13T19:22:39.334Z,9.17
2023-11-13T19:25:42.168Z,9.20
2023-11-13T19:28:44.179Z,9.26
2023-11-13T19:31:45.969Z,9.29
2023-11-13T19:34:47.685Z,9.32
2023-11-13T19:37:49.725Z,9.25
2023-11-13T19:40:51.718Z,9.21
2023-11-13T19:43:54.780Z,9.19
2023-11-13T19:46:56.822Z,9.23
2023-11-13T19:49:58.816Z,9.27
2023-11-13T19:53:01.441Z,9.27
2023-11-13T19:56:03.512Z,9.30
2023-11-13T19:59:16.992Z,9.25
2023-11-13T20:02:19.616Z,9.34
2023-11-13T20:05:21.591Z,9.16
2023-11-13T20:08:23.752Z,8.86
2023-11-13T20:11:25.937Z,8.94
2023-11-13T20:14:27.840Z,8.98
2023-11-13T20:17:29.644Z,9.04
2023-11-13T20:20:31.408Z,8.93
2023-11-13T20:23:33.073Z,9.05
2023-11-13T20:26:34.765Z,9.02
2023-11-13T20:29:38.796Z,9.08
2023-11-13T20:32:40.831Z,9.12
2023-11-13T20:35:42.705Z,9.10
2023-11-13T20:38:44.686Z,9.08
2023-11-13T20:41:46.492Z,9.13
2023-11-13T20:44:48.350Z,9.24
2023-11-13T20:47:50.506Z,9.15
2023-11-13T20:50:52.458Z,9.10
2023-11-13T20:53:54.352Z,9.07
2023-11-13T20:56:56.086Z,9.15
2023-11-13T20:59:57.842Z,9.07
2023-11-13T21:02:59.821Z,9.05
2023-11-13T21:06:07.523Z,9.11
2023-11-13T21:09:10.494Z,9.12
2023-11-13T21:12:12.270Z,9.12
2023-11-13T21:15:14.268Z,9.12
2023-11-13T21:18:16.021Z,9.08
2023-11-13T21:21:17.778Z,9.09
2023-11-13T21:24:19.883Z,9.10
2023-11-13T21:27:21.932Z,9.10
2023-11-13T21:30:23.770Z,9.10
2023-11-13T21:33:25.519Z,9.14
2023-11-13T21:36:27.620Z,9.25
2023-11-13T21:39:29.610Z,9.22
2023-11-13T21:42:31.600Z,9.10
2023-11-13T21:45:33.501Z,9.04
2023-11-13T21:48:36.308Z,9.11
2023-11-13T21:51:39.252Z,9.04
2023-11-13T21:54:41.024Z,9.08
2023-11-13T21:57:43.096Z,8.89
2023-11-13T22:00:45.089Z,8.83
2023-11-13T22:03:46.749Z,8.87
2023-11-13T22:06:49.183Z,8.90
2023-11-13T22:09:53.834Z,8.97
2023-11-13T22:12:55.858Z,8.95
2023-11-13T22:15:57.785Z,9.03
2023-11-13T22:18:59.781Z,9.01
2023-11-13T22:22:01.511Z,9.02
2023-11-13T22:25:03.744Z,9.00
2023-11-13T22:28:05.683Z,9.01
2023-11-13T22:31:07.512Z,9.10
2023-11-13T22:34:09.553Z,9.10
2023-11-13T22:37:11.662Z,9.16
2023-11-13T22:40:14.090Z,9.15
2023-11-13T22:43:15.749Z,9.12
2023-11-13T22:46:17.776Z,9.11
2023-11-13T22:49:19.867Z,9.20
2023-11-13T22:52:21.965Z,9.12
2023-11-13T22:55:24.012Z,9.08
2023-11-13T22:58:25.704Z,8.87
2023-11-13T23:01:27.666Z,8.72
2023-11-13T23:04:29.621Z,8.72
2023-11-13T23:14:47.179Z,8.81
2023-11-13T23:17:49.072Z,8.71
2023-11-13T23:38:19.563Z,8.94
2023-11-13T23:41:21.818Z,8.88
2023-11-13T23:44:23.730Z,8.77
2023-11-13T23:47:26.044Z,8.81
2023-11-13T23:50:28.274Z,8.91
2023-11-13T23:53:29.929Z,8.97
2023-11-13T23:56:31.846Z,8.88
2023-11-13T23:59:36.911Z,8.95
